VTSS Airport Information

Runway Information
Runway 08 Length 10007 ft width 148 ft
Elevation 65 ft Threshold 0 ft Heading 83
Runway 26 Length 10007 ft Width 148 ft
Elevation 58 ft Threshold 0 ft Heading 263
Airport Frequencies
Type APP Name APP Frequency 126.7 MHZ
Type ATIS Name ATIS Frequency 128.8 MHZ
Type GND Name GND Frequency 121.9 MHZ
Type TWR Name TWR Frequency 118.1 MHZ
Airport Navaids
Type TACAN Name Hat Yai Frequency 115700 KHZ
Type VOR-DME Name Hat Yai Frequency 115300 KHZ
Type NDB Name Hat Yai Frequency 328 KHZ
Airport Weather Information & NOTAM
ADDS - METARS form results

(1046 UTC 23 March 2019)
Data provider http://aviationweather.gov/metar/data/
 
METAR text: VTSS 231030Z 06005KT 9999 FEW020 34/20 Q1007 NOSIG
Conditions at: VTSS (HAT YAI , TH) observed 1030 UTC 23 March 2019
Temperature: 34.0°C (93°F)
Dewpoint: 20.0°C (68°F) [RH = 44%]
Pressure (altimeter): 29.73 inches Hg (1007.0 mb)
Winds: from the ENE (60 degrees) at 6 MPH (5 knots; 2.6 m/s)
Visibility: 6 or more miles (10+ km)
Ceiling: at least 12,000 feet AGL
Clouds: few clouds at 2000 feet AGL
Weather: no significant weather observed at this time

METAR text: VTSS 231000Z 06010KT 9999 FEW018CB 35/19 Q1006 NOSIG
Conditions at: VTSS (HAT YAI , TH) observed 1000 UTC 23 March 2019
Temperature: 35.0°C (95°F)
Dewpoint: 19.0°C (66°F) [RH = 39%]
Pressure (altimeter): 29.70 inches Hg (1006.0 mb)
Winds: from the ENE (60 degrees) at 12 MPH (10 knots; 5.1 m/s)
Visibility: 6 or more miles (10+ km)
Ceiling: at least 12,000 feet AGL
Clouds: few clouds at 1800 feet AGL
Weather: no significant weather observed at this time

Forecast for: VTSS (HAT YAI , TH)
Text: TAF VTSS 230500Z 2306/2406 04010KT 9999 FEW020
Forecast period: 0600 to 1300 UTC 23 March 2019
Forecast type: FROM: standard forecast or significant change
Winds: from the NE (40 degrees) at 12 MPH (10 knots; 5.1 m/s)
Visibility: 6 or more miles 10+ km)
Ceiling: at least 12,000 feet AGL
Clouds: few clouds at 2000 feet AGL
Weather: no significant weather forecast for this period
Text: BECMG 2313/2315 00000KT
Forecast period: 1300 UTC 23 March 2019 to 0400 UTC 24 March 2019
Forecast type: BECOMING: Conditions expected to become as follows by 1500 UTC 23 March 2019
Winds: calm
Visibility: 6 or more miles 10+ km)
Ceiling: at least 12,000 feet AGL
Clouds: few clouds at 2000 feet AGL
Weather: no significant weather forecast for this period
Text: BECMG 2404/2406 04010KT
Forecast period: 0400 to 0600 UTC 24 March 2019
Forecast type: BECOMING: Conditions expected to become as follows by 0600 UTC 24 March 2019
Winds: from the NE (40 degrees) at 12 MPH (10 knots; 5.1 m/s)
Visibility: 6 or more miles 10+ km)
Ceiling: at least 12,000 feet AGL
Clouds: few clouds at 2000 feet AGL
Weather: no significant weather forecast for this period